Time;durP1;ratioP1;P1;durP2;ratioP2;P2;SDS_P1;SDS_P2;PMS_P1;PMS_P2;Temp;Humidity;BMP_temperature;BMP_pressure;BME280_temperature;BME280_humidity;BME280_pressure;Samples;Min_cycle;Max_cycle;Signal;HPM_P1;HPM_P2
2022/02/15 11:47:44;;;;;;;8.25;6.00;;;6.50;99.90;;;;;;5070725;28;20538;-68
2022/02/15 11:50:13;;;;;;;7.93;5.80;;;6.50;99.90;;;;;;5070614;28;20211;-69
2022/02/15 11:52:38;;;;;;;5.20;4.70;;;6.60;99.90;;;;;;5070662;28;20191;-69
2022/02/15 11:55:06;;;;;;;4.45;4.03;;;6.70;99.90;;;;;;5069357;28;20633;-68
2022/02/15 11:57:32;;;;;;;4.68;4.28;;;6.80;99.90;;;;;;5070530;28;20247;-69
2022/02/15 11:59:58;;;;;;;8.32;3.75;;;6.80;99.90;;;;;;5070719;28;20252;-69
2022/02/15 12:02:23;;;;;;;6.18;3.90;;;6.80;99.90;;;;;;5070486;28;20168;-69
2022/02/15 12:04:58;;;;;;;4.60;4.20;;;6.80;99.90;;;;;;5070383;28;20168;-69
2022/02/15 12:07:28;;;;;;;5.82;3.78;;;6.80;99.90;;;;;;5070230;28;20215;-69
2022/02/15 12:09:56;;;;;;;3.90;3.55;;;6.80;99.90;;;;;;5070253;28;20167;-69
2022/02/15 12:12:31;;;;;;;7.75;3.60;;;6.80;99.90;;;;;;5070118;28;20164;-69
2022/02/15 12:14:57;;;;;;;5.53;4.45;;;6.80;99.90;;;;;;5070076;28;20167;-69
2022/02/15 12:17:25;;;;;;;6.65;4.15;;;6.80;99.90;;;;;;5068743;28;20209;-69
2022/02/15 12:19:56;;;;;;;7.60;3.80;;;6.80;99.90;;;;;;5069939;28;20196;-69
2022/02/15 12:22:24;;;;;;;9.57;4.45;;;6.70;99.90;;;;;;5069863;28;20192;-69
2022/02/15 12:24:51;;;;;;;4.38;3.97;;;6.50;99.90;;;;;;5069882;28;20168;-69
2022/02/15 12:27:17;;;;;;;6.60;3.88;;;6.50;99.90;;;;;;5069704;28;20696;-69
2022/02/15 12:29:43;;;;;;;4.53;3.55;;;6.50;99.90;;;;;;5069794;28;20168;-69
2022/02/15 12:32:08;;;;;;;6.38;3.55;;;6.40;99.90;;;;;;5069730;28;20164;-69
2022/02/15 12:34:34;;;;;;;4.13;3.53;;;6.40;99.90;;;;;;5070134;28;20167;-68
2022/02/15 12:37:00;;;;;;;3.53;3.33;;;6.40;99.90;;;;;;5069520;28;20196;-69
2022/02/15 12:39:37;;;;;;;3.92;3.55;;;6.50;99.90;;;;;;5069503;28;20191;-68
2022/02/15 12:42:16;;;;;;;3.35;3.05;;;6.40;99.90;;;;;;5069421;28;20207;-69
2022/02/15 12:44:53;;;;;;;6.40;3.70;;;6.40;99.90;;;;;;5069431;28;20177;-68
2022/02/15 12:47:18;;;;;;;4.50;3.60;;;6.40;99.90;;;;;;5069054;28;20220;-69
2022/02/15 12:49:44;;;;;;;3.78;3.47;;;6.40;99.90;;;;;;5069291;28;20191;-68
2022/02/15 12:52:11;;;;;;;3.40;3.13;;;6.40;99.90;;;;;;5069261;28;20623;-68
2022/02/15 12:54:38;;;;;;;4.57;3.90;;;6.40;99.90;;;;;;5069252;28;20515;-68
2022/02/15 12:57:14;;;;;;;3.58;3.15;;;6.40;99.90;;;;;;5065226;28;20192;-68
2022/02/15 12:59:40;;;;;;;6.18;3.30;;;6.50;99.90;;;;;;5055908;28;20173;-69
2022/02/15 13:02:11;;;;;;;3.53;3.22;;;6.60;99.90;;;;;;5055875;28;20227;-69
2022/02/15 13:04:48;;;;;;;5.57;3.38;;;6.70;99.90;;;;;;5055870;28;20180;-69
2022/02/15 13:07:15;;;;;;;3.67;3.33;;;6.90;99.90;;;;;;5055666;28;20242;-68
2022/02/15 13:09:46;;;;;;;5.38;2.97;;;7.10;99.90;;;;;;5055725;28;20542;-69
2022/02/15 13:12:21;;;;;;;3.20;2.92;;;7.30;99.90;;;;;;5055669;28;20174;-68
2022/02/15 13:14:50;;;;;;;4.43;2.67;;;7.40;99.90;;;;;;5054362;28;20168;-69
2022/02/15 13:17:16;;;;;;;6.43;3.15;;;7.50;99.90;;;;;;5055826;28;20165;-69
2022/02/15 13:19:41;;;;;;;2.80;2.58;;;7.50;99.90;;;;;;5055548;28;20173;-68
2022/02/15 13:22:14;;;;;;;4.82;3.58;;;7.50;99.90;;;;;;5055392;28;20318;-69
2022/02/15 13:24:54;;;;;;;4.63;3.17;;;7.40;99.90;;;;;;5055525;28;20187;-68
2022/02/15 13:27:28;;;;;;;4.00;3.65;;;7.40;99.90;;;;;;5055321;28;20231;-69
2022/02/15 13:29:55;;;;;;;5.25;2.85;;;7.50;99.90;;;;;;5055337;28;20223;-69
2022/02/15 13:32:32;;;;;;;2.05;1.95;;;7.70;99.90;;;;;;5055339;28;20589;-69
2022/02/15 13:34:57;;;;;;;6.75;2.42;;;7.70;99.90;;;;;;5055261;28;20165;-69
2022/02/15 13:37:34;;;;;;;2.47;2.38;;;7.70;99.90;;;;;;5055195;28;20248;-68
2022/02/15 13:40:01;;;;;;;2.25;2.05;;;7.60;99.90;;;;;;5055173;28;20243;-69
2022/02/15 13:42:27;;;;;;;1.90;1.80;;;7.70;99.90;;;;;;5055204;28;20231;-68
2022/02/15 13:44:55;;;;;;;6.97;1.83;;;7.70;99.90;;;;;;5055117;28;20197;-68
2022/02/15 13:47:21;;;;;;;8.18;2.17;;;7.80;99.90;;;;;;5054865;28;20266;-69
2022/02/15 13:49:46;;;;;;;2.30;2.10;;;7.90;99.90;;;;;;5054937;28;20169;-69
2022/02/15 13:52:12;;;;;;;6.07;1.90;;;8.00;99.90;;;;;;5054953;28;20165;-68
2022/02/15 13:54:38;;;;;;;2.17;2.08;;;8.00;99.90;;;;;;5054889;28;20161;-69
2022/02/15 13:57:04;;;;;;;5.25;2.65;;;8.10;99.90;;;;;;5054894;28;20188;-68
2022/02/15 13:59:29;;;;;;;2.63;2.25;;;8.30;99.90;;;;;;5054770;28;20184;-69
2022/02/15 14:01:55;;;;;;;4.20;1.88;;;8.30;99.90;;;;;;5053553;28;20180;-68
2022/02/15 14:04:26;;;;;;;2.70;2.13;;;8.20;99.90;;;;;;5054703;28;20247;-69
2022/02/15 14:06:53;;;;;;;4.63;1.95;;;8.20;99.90;;;;;;5054612;28;20472;-69
2022/02/15 14:09:19;;;;;;;2.25;2.05;;;8.10;99.90;;;;;;5053635;28;20241;-69
2022/02/15 14:11:44;;;;;;;4.78;2.33;;;8.20;99.90;;;;;;5053335;28;20593;-68
2022/02/15 14:14:10;;;;;;;4.10;2.25;;;8.40;99.90;;;;;;5054537;28;20204;-69
2022/02/15 14:16:36;;;;;;;3.00;1.95;;;8.80;99.90;;;;;;5054538;28;20176;-69
2022/02/15 14:19:02;;;;;;;2.40;2.00;;;9.10;99.90;;;;;;5054356;28;20711;-69
2022/02/15 14:21:27;;;;;;;4.80;2.38;;;9.00;99.90;;;;;;5054132;28;20193;-69
2022/02/15 14:23:53;;;;;;;1.60;1.55;;;9.00;99.90;;;;;;5054333;28;20165;-69
2022/02/15 14:26:18;;;;;;;2.08;1.95;;;9.00;99.90;;;;;;5054240;28;20228;-69
2022/02/15 14:28:44;;;;;;;2.10;2.00;;;9.10;99.90;;;;;;5054255;28;20177;-69
2022/02/15 14:31:10;;;;;;;8.05;2.00;;;9.20;99.90;;;;;;5054212;28;20311;-69
2022/02/15 14:33:37;;;;;;;2.67;1.55;;;9.30;99.90;;;;;;5054091;28;20168;-69
2022/02/15 14:36:04;;;;;;;3.55;1.92;;;9.20;99.90;;;;;;5054076;28;20650;-69
2022/02/15 14:38:29;;;;;;;1.70;1.60;;;9.20;99.90;;;;;;5054189;28;20586;-69
2022/02/15 14:40:55;;;;;;;3.10;1.70;;;9.10;99.90;;;;;;5054096;28;20318;-69
2022/02/15 14:43:22;;;;;;;2.35;1.90;;;9.00;99.90;;;;;;5053994;28;20254;-69
2022/02/15 14:45:50;;;;;;;1.88;1.67;;;8.90;99.90;;;;;;5053690;28;20220;-69
2022/02/15 14:48:16;;;;;;;5.25;1.85;;;8.80;99.90;;;;;;5053927;28;20173;-69
2022/02/15 14:50:41;;;;;;;3.60;1.40;;;8.60;99.90;;;;;;5053837;28;20175;-69
2022/02/15 14:53:07;;;;;;;1.65;1.52;;;8.50;99.90;;;;;;5053790;28;20682;-69
2022/02/15 14:55:37;;;;;;;3.28;1.60;;;8.50;99.90;;;;;;5053743;28;20175;-69
2022/02/15 14:58:05;;;;;;;1.88;1.77;;;8.50;99.90;;;;;;5053676;28;20168;-69
2022/02/15 15:00:31;;;;;;;2.33;2.22;;;8.50;99.90;;;;;;5053566;28;20223;-69
2022/02/15 15:02:58;;;;;;;7.68;2.40;;;8.50;99.90;;;;;;5053595;28;20252;-69
2022/02/15 15:05:23;;;;;;;7.63;2.05;;;8.40;99.90;;;;;;5053494;28;20627;-69
2022/02/15 15:07:49;;;;;;;3.10;1.98;;;8.40;99.90;;;;;;5053554;28;20187;-68
2022/02/15 15:10:15;;;;;;;2.33;1.50;;;8.30;99.90;;;;;;5053523;28;20169;-69
2022/02/15 15:12:40;;;;;;;1.63;1.45;;;8.30;99.90;;;;;;5052206;28;20215;-69
2022/02/15 15:15:07;;;;;;;3.45;1.50;;;8.40;99.90;;;;;;5053389;28;20196;-69
2022/02/15 15:17:34;;;;;;;1.73;1.60;;;8.50;99.90;;;;;;5053400;28;20201;-69
2022/02/15 15:20:00;;;;;;;2.35;1.45;;;8.60;99.90;;;;;;5053184;28;20184;-69
2022/02/15 15:22:26;;;;;;;1.60;1.50;;;8.60;99.90;;;;;;5053194;28;20192;-69
2022/02/15 15:24:52;;;;;;;1.63;1.42;;;8.60;99.90;;;;;;5053295;28;20251;-69
2022/02/15 15:27:18;;;;;;;2.35;1.45;;;8.40;99.90;;;;;;5053327;28;20200;-69
2022/02/15 15:29:46;;;;;;;5.40;1.80;;;8.30;99.90;;;;;;5053130;28;20173;-69
2022/02/15 15:32:12;;;;;;;4.00;1.48;;;8.20;99.90;;;;;;5053198;28;20496;-69
2022/02/15 15:34:38;;;;;;;1.80;1.55;;;8.00;99.90;;;;;;5053217;28;20628;-68
2022/02/15 15:37:04;;;;;;;1.70;1.60;;;7.90;99.90;;;;;;5053184;28;20265;-69
2022/02/15 15:39:30;;;;;;;3.17;1.60;;;7.90;99.90;;;;;;5053112;28;20602;-69
2022/02/15 15:41:56;;;;;;;4.05;2.03;;;7.60;99.90;;;;;;5053140;28;20180;-69
2022/02/15 15:44:22;;;;;;;3.33;1.70;;;7.70;99.90;;;;;;5053013;28;20589;-69
2022/02/15 15:46:48;;;;;;;3.05;1.67;;;7.70;99.90;;;;;;5052865;28;20747;-69
2022/02/15 15:49:13;;;;;;;5.90;1.80;;;7.60;99.90;;;;;;5052998;28;20248;-69
2022/02/15 15:51:39;;;;;;;5.82;1.70;;;7.60;99.90;;;;;;5053035;28;20253;-69
2022/02/15 15:54:06;;;;;;;3.28;2.58;;;7.60;99.90;;;;;;5053035;28;20161;-69
2022/02/15 15:56:33;;;;;;;4.03;2.22;;;7.50;99.90;;;;;;5052967;28;20252;-69
2022/02/15 15:59:00;;;;;;;1.58;1.45;;;7.50;99.90;;;;;;5052925;28;20725;-69
2022/02/15 16:01:26;;;;;;;1.88;1.52;;;7.50;99.90;;;;;;5052940;28;20260;-69
2022/02/15 16:03:52;;;;;;;1.63;1.50;;;7.50;99.90;;;;;;5053000;28;20165;-69
2022/02/15 16:06:18;;;;;;;3.83;1.50;;;7.60;99.90;;;;;;5052793;28;20193;-69
2022/02/15 16:08:44;;;;;;;3.13;1.95;;;7.60;99.90;;;;;;5052874;28;20626;-69
2022/02/15 16:11:09;;;;;;;2.35;1.60;;;7.60;99.90;;;;;;5052820;28;20176;-69
2022/02/15 16:13:35;;;;;;;3.33;1.77;;;7.60;99.90;;;;;;5052810;28;20619;-69
2022/02/15 16:16:01;;;;;;;3.83;1.67;;;7.40;99.90;;;;;;5052803;28;20218;-69
2022/02/15 16:18:27;;;;;;;3.28;2.08;;;7.30;99.90;;;;;;5052788;28;20173;-69
2022/02/15 16:20:53;;;;;;;2.08;1.80;;;7.30;99.90;;;;;;5052634;28;20254;-69
2022/02/15 16:23:19;;;;;;;2.40;2.20;;;7.20;99.90;;;;;;5052735;28;20636;-69
2022/02/15 16:25:44;;;;;;;1.88;1.77;;;7.10;99.90;;;;;;5052638;28;20272;-69
2022/02/15 16:28:10;;;;;;;3.80;1.35;;;7.00;99.90;;;;;;5053133;28;20161;-69
2022/02/15 16:30:41;;;;;;;1.30;1.23;;;7.00;99.90;;;;;;5052657;28;20249;-69
2022/02/15 16:33:07;;;;;;;2.03;1.52;;;7.00;99.90;;;;;;5054295;28;20175;-69
2022/02/15 16:35:33;;;;;;;3.30;1.60;;;6.90;99.90;;;;;;5056413;28;20165;-69
